createdAt,value
2023-05-04T00:02:18.412Z,1.61
2023-05-04T00:04:45.013Z,1.59
2023-05-04T00:07:11.663Z,1.57
2023-05-04T00:09:38.464Z,1.55
2023-05-04T00:12:06.754Z,1.53
2023-05-04T00:14:33.428Z,1.49
2023-05-04T00:17:00.027Z,1.44
2023-05-04T00:19:26.590Z,1.38
2023-05-04T00:21:53.126Z,1.35
2023-05-04T00:24:19.648Z,1.32
2023-05-04T00:26:46.346Z,1.27
2023-05-04T00:29:12.934Z,1.22
2023-05-04T00:31:39.607Z,1.20
2023-05-04T00:34:06.323Z,1.18
2023-05-04T00:36:32.888Z,1.16
2023-05-04T00:38:59.487Z,1.13
2023-05-04T00:41:26.106Z,1.12
2023-05-04T00:43:52.673Z,1.13
2023-05-04T00:46:19.462Z,1.11
2023-05-04T00:48:48.514Z,1.02
2023-05-04T00:51:17.035Z,0.93
2023-05-04T00:53:44.077Z,0.86
2023-05-04T00:56:11.896Z,0.81
2023-05-04T00:58:38.507Z,0.80
2023-05-04T01:01:05.367Z,0.81
2023-05-04T01:03:33.729Z,0.84
2023-05-04T01:06:19.545Z,0.88
2023-05-04T01:08:57.882Z,0.90
2023-05-04T01:11:42.733Z,0.90
2023-05-04T01:14:10.410Z,0.91
2023-05-04T01:16:37.083Z,0.91
2023-05-04T01:19:03.987Z,0.92
2023-05-04T01:21:31.296Z,0.92
2023-05-04T01:23:59.126Z,0.91
2023-05-04T01:26:29.909Z,0.90
2023-05-04T01:29:04.918Z,0.90
2023-05-04T01:31:35.399Z,0.88
2023-05-04T01:34:03.349Z,0.87
2023-05-04T01:36:30.822Z,0.86
2023-05-04T01:39:00.218Z,0.85
2023-05-04T01:41:27.412Z,0.85
2023-05-04T01:43:54.418Z,0.85
2023-05-04T01:46:21.446Z,0.86
2023-05-04T01:48:48.159Z,0.85
2023-05-04T01:51:14.790Z,0.83
2023-05-04T01:53:41.380Z,0.81
2023-05-04T01:56:09.398Z,0.79
2023-05-04T01:58:35.993Z,0.78
2023-05-04T02:01:02.578Z,0.76
2023-05-04T02:03:29.510Z,0.72
2023-05-04T02:05:56.186Z,0.69
2023-05-04T02:08:22.932Z,0.66
2023-05-04T02:10:49.603Z,0.65
2023-05-04T02:13:16.706Z,0.63
2023-05-04T02:18:44.881Z,0.60
2023-05-04T02:21:11.613Z,0.60
2023-05-04T02:23:38.184Z,0.61
2023-05-04T02:26:04.763Z,0.62
2023-05-04T02:28:31.322Z,0.61
2023-05-04T02:30:57.970Z,0.61
2023-05-04T02:33:24.509Z,0.60
2023-05-04T02:35:51.882Z,0.59
2023-05-04T02:38:18.420Z,0.57
2023-05-04T02:40:45.010Z,0.54
2023-05-04T02:43:11.653Z,0.53
2023-05-04T02:45:38.283Z,0.51
2023-05-04T02:48:05.099Z,0.48
2023-05-04T02:50:32.080Z,0.45
2023-05-04T02:52:58.705Z,0.41
2023-05-04T02:55:25.804Z,0.37
2023-05-04T02:57:52.382Z,0.32
2023-05-04T03:00:19.103Z,0.28
2023-05-04T03:02:45.877Z,0.26
2023-05-04T03:05:12.699Z,0.25
2023-05-04T03:07:39.402Z,0.23
2023-05-04T03:10:07.353Z,0.23
2023-05-04T03:12:34.370Z,0.23
2023-05-04T03:15:01.055Z,0.25
2023-05-04T03:17:27.779Z,0.27
2023-05-04T03:19:55.238Z,0.27
2023-05-04T03:22:22.432Z,0.28
2023-05-04T03:24:49.485Z,0.27
2023-05-04T03:27:17.293Z,0.24
2023-05-04T03:29:44.163Z,0.26
2023-05-04T03:32:13.377Z,0.31
2023-05-04T03:34:40.231Z,0.34
2023-05-04T03:37:08.144Z,0.37
2023-05-04T03:39:34.851Z,0.42
2023-05-04T03:42:02.639Z,0.47
2023-05-04T03:44:29.387Z,0.52
2023-05-04T03:46:56.116Z,0.59
2023-05-04T03:49:22.705Z,0.66
2023-05-04T03:51:49.314Z,0.74
2023-05-04T03:54:15.920Z,0.81
2023-05-04T03:56:42.518Z,0.87
2023-05-04T03:59:09.195Z,0.91
2023-05-04T04:01:36.509Z,0.97
2023-05-04T04:04:03.581Z,1.01
2023-05-04T04:06:30.994Z,1.01
2023-05-04T04:08:57.603Z,1.01
2023-05-04T04:11:24.189Z,1.03
2023-05-04T04:13:51.136Z,1.08
2023-05-04T04:16:17.783Z,1.12
2023-05-04T04:18:44.523Z,1.17
2023-05-04T04:21:11.238Z,1.26
2023-05-04T04:23:38.871Z,1.35
2023-05-04T04:26:08.342Z,1.45
2023-05-04T04:28:34.963Z,1.56
2023-05-04T04:31:03.298Z,1.71
2023-05-04T04:33:29.965Z,1.89
2023-05-04T04:35:56.581Z,2.07
2023-05-04T04:38:23.234Z,2.27
2023-05-04T04:40:49.768Z,2.46
2023-05-04T04:43:16.330Z,2.64
2023-05-04T04:45:42.960Z,2.82
2023-05-04T04:48:09.992Z,2.99
2023-05-04T04:50:39.191Z,3.17
2023-05-04T04:53:05.784Z,3.33
2023-05-04T04:55:32.590Z,3.50
2023-05-04T04:57:59.172Z,3.66
2023-05-04T05:00:26.241Z,3.84
2023-05-04T05:02:52.896Z,4.09
2023-05-04T05:05:19.725Z,4.38
2023-05-04T05:07:46.338Z,4.70
2023-05-04T05:10:19.889Z,4.99
2023-05-04T05:12:51.949Z,5.29
2023-05-04T05:15:18.677Z,5.63
2023-05-04T05:17:45.282Z,5.96
2023-05-04T05:20:12.050Z,6.26
2023-05-04T05:22:39.406Z,6.52
2023-05-04T05:25:07.542Z,6.75
2023-05-04T05:27:34.646Z,6.97
2023-05-04T05:30:02.421Z,7.17
2023-05-04T05:32:29.782Z,7.38
2023-05-04T05:34:56.835Z,7.58
2023-05-04T05:37:24.150Z,7.78
2023-05-04T05:39:51.206Z,7.96
2023-05-04T05:42:18.252Z,8.10
2023-05-04T05:44:44.828Z,8.25
2023-05-04T05:47:11.395Z,8.40
2023-05-04T05:49:38.484Z,8.56
2023-05-04T05:52:05.322Z,8.70
2023-05-04T05:54:33.494Z,8.83
2023-05-04T05:57:00.206Z,9.00
2023-05-04T05:59:26.799Z,9.20
2023-05-04T06:01:53.559Z,9.37
2023-05-04T06:04:20.290Z,9.50
2023-05-04T06:06:46.982Z,9.65
2023-05-04T06:09:13.605Z,9.83
2023-05-04T06:11:40.114Z,9.99
2023-05-04T06:14:06.743Z,10.11
2023-05-04T06:16:33.387Z,10.25
2023-05-04T06:18:59.998Z,10.35
2023-05-04T06:21:26.651Z,10.51
2023-05-04T06:23:53.263Z,10.66
2023-05-04T06:26:20.211Z,10.78
2023-05-04T06:28:46.941Z,10.91
2023-05-04T06:31:13.645Z,11.03
2023-05-04T06:33:40.205Z,11.14
2023-05-04T06:36:07.441Z,11.33
2023-05-04T06:38:35.739Z,11.65
2023-05-04T06:41:04.624Z,12.15
2023-05-04T06:43:32.441Z,12.90
2023-05-04T06:46:03.871Z,13.85
2023-05-04T06:48:31.826Z,14.80
2023-05-04T06:51:00.652Z,15.68
2023-05-04T06:53:28.399Z,16.28
2023-05-04T06:55:55.253Z,17.15
2023-05-04T06:58:22.003Z,18.06
2023-05-04T07:00:48.906Z,19.04
2023-05-04T07:03:15.824Z,19.78
2023-05-04T07:05:44.563Z,20.00
2023-05-04T07:08:11.787Z,20.48
2023-05-04T07:10:38.556Z,21.19
2023-05-04T07:13:05.890Z,21.81
2023-05-04T07:15:33.897Z,22.48
2023-05-04T07:18:01.495Z,23.26
2023-05-04T07:20:28.687Z,24.06
2023-05-04T07:22:57.055Z,24.70
2023-05-04T07:25:30.497Z,25.12
2023-05-04T07:27:58.267Z,25.51
2023-05-04T07:30:25.048Z,26.13
2023-05-04T07:32:52.013Z,26.04
2023-05-04T07:35:19.246Z,25.58
2023-05-04T07:37:46.499Z,25.16
2023-05-04T07:40:14.775Z,25.09
2023-05-04T07:42:42.249Z,24.96
2023-05-04T07:45:09.861Z,25.32
2023-05-04T07:47:37.193Z,25.80
2023-05-04T07:50:07.452Z,26.25
2023-05-04T07:52:34.313Z,26.63
2023-05-04T07:55:00.932Z,27.08
2023-05-04T07:57:27.553Z,27.06
2023-05-04T07:59:55.435Z,26.12
2023-05-04T08:02:22.889Z,25.05
2023-05-04T08:04:50.046Z,24.77
2023-05-04T08:07:17.157Z,25.55
2023-05-04T08:09:43.844Z,26.33
2023-05-04T08:12:12.301Z,26.99
2023-05-04T08:14:39.908Z,27.75
2023-05-04T08:17:06.556Z,28.55
2023-05-04T08:19:33.915Z,28.64
2023-05-04T08:22:00.747Z,28.32
2023-05-04T08:24:27.456Z,28.50
2023-05-04T08:27:06.626Z,28.53
2023-05-04T08:29:37.210Z,28.55
2023-05-04T08:32:04.316Z,28.79
2023-05-04T08:34:31.461Z,29.60
2023-05-04T08:36:58.306Z,30.20
2023-05-04T08:39:25.220Z,29.60
2023-05-04T08:41:51.870Z,29.59
2023-05-04T08:44:21.165Z,29.75
2023-05-04T08:46:54.291Z,29.75
2023-05-04T08:49:21.786Z,30.01
2023-05-04T08:51:51.270Z,30.42
2023-05-04T08:54:18.569Z,30.99
2023-05-04T08:56:47.224Z,31.44
2023-05-04T08:59:22.055Z,31.48
2023-05-04T09:01:53.060Z,31.44
2023-05-04T09:04:20.708Z,31.40
2023-05-04T09:06:47.528Z,31.77
2023-05-04T09:09:14.626Z,32.11
2023-05-04T09:11:41.428Z,32.56
2023-05-04T09:14:08.180Z,33.48
2023-05-04T09:16:36.617Z,34.72
2023-05-04T09:19:04.819Z,35.64
2023-05-04T09:21:32.211Z,36.01
2023-05-04T09:23:59.316Z,36.11
2023-05-04T09:26:30.629Z,36.13
2023-05-04T09:29:09.725Z,35.83
2023-05-04T09:31:48.057Z,35.97
2023-05-04T09:34:15.144Z,36.25
2023-05-04T09:36:42.288Z,36.55
2023-05-04T09:39:11.500Z,36.90
2023-05-04T09:41:38.458Z,37.18
2023-05-04T09:44:05.465Z,36.94
2023-05-04T09:46:33.027Z,36.37
2023-05-04T09:49:00.801Z,36.27
2023-05-04T09:51:27.622Z,36.51
2023-05-04T09:53:54.657Z,35.13
2023-05-04T09:56:37.591Z,34.74
2023-05-04T09:59:05.341Z,34.96
2023-05-04T10:01:32.442Z,34.15
2023-05-04T10:03:59.418Z,34.11
2023-05-04T10:06:28.949Z,34.22
2023-05-04T10:08:56.679Z,34.64
2023-05-04T10:11:25.756Z,34.79
2023-05-04T10:13:54.607Z,34.87
2023-05-04T10:16:46.061Z,34.67
2023-05-04T10:19:38.352Z,34.52
2023-05-04T10:22:32.942Z,34.68
2023-05-04T10:25:22.506Z,35.20
2023-05-04T10:27:49.097Z,35.89
2023-05-04T10:30:18.521Z,36.46
2023-05-04T10:32:45.871Z,36.58
2023-05-04T10:35:12.837Z,36.72
2023-05-04T10:37:51.285Z,36.97
2023-05-04T10:40:18.219Z,37.07
2023-05-04T10:42:45.234Z,36.27
2023-05-04T10:45:13.091Z,35.99
2023-05-04T10:47:40.939Z,35.91
2023-05-04T10:50:14.694Z,35.65
2023-05-04T10:52:48.935Z,35.50
2023-05-04T10:55:17.135Z,34.94
2023-05-04T10:58:02.247Z,34.62
2023-05-04T11:00:46.604Z,34.56
2023-05-04T11:03:14.530Z,34.34
2023-05-04T11:05:52.748Z,33.64
2023-05-04T11:08:26.507Z,33.42
2023-05-04T11:11:05.845Z,33.43
2023-05-04T11:13:41.500Z,33.26
2023-05-04T11:16:12.370Z,33.80
2023-05-04T11:18:39.500Z,33.95
2023-05-04T11:21:06.257Z,34.00
2023-05-04T11:23:33.492Z,33.72
2023-05-04T11:26:12.311Z,33.68
2023-05-04T11:28:39.617Z,33.65
2023-05-04T11:31:17.445Z,34.02
2023-05-04T11:33:51.570Z,34.73
2023-05-04T11:36:19.433Z,35.33
2023-05-04T11:38:47.007Z,35.47
2023-05-04T11:41:13.876Z,35.59
2023-05-04T11:43:43.661Z,35.85
2023-05-04T11:46:11.203Z,35.55
2023-05-04T11:48:38.900Z,34.83
2023-05-04T11:51:06.567Z,34.08
2023-05-04T11:53:41.610Z,34.28
2023-05-04T11:56:09.850Z,34.67
2023-05-04T11:58:37.265Z,34.91
2023-05-04T12:01:04.965Z,35.08
2023-05-04T12:03:48.623Z,35.17
2023-05-04T12:06:33.059Z,35.23
2023-05-04T12:09:06.910Z,34.81
2023-05-04T12:11:39.528Z,34.01
2023-05-04T12:14:12.703Z,33.42
2023-05-04T12:16:43.040Z,33.04
2023-05-04T12:19:15.728Z,32.38
2023-05-04T12:21:52.403Z,32.42
2023-05-04T12:24:25.199Z,32.46
2023-05-04T12:26:54.257Z,31.64
2023-05-04T12:29:23.723Z,31.22
2023-05-04T12:31:51.927Z,29.73
2023-05-04T12:34:21.757Z,28.97
2023-05-04T12:36:52.341Z,29.31
2023-05-04T12:39:21.758Z,29.46
2023-05-04T12:41:50.795Z,29.74
2023-05-04T12:44:21.278Z,29.82
2023-05-04T12:46:50.214Z,30.03
2023-05-04T12:49:19.051Z,29.35
2023-05-04T12:51:48.155Z,28.77
2023-05-04T12:54:17.773Z,28.91
2023-05-04T12:56:46.751Z,29.32
2023-05-04T12:59:15.784Z,29.68
2023-05-04T13:01:45.189Z,29.65
2023-05-04T13:04:14.137Z,29.20
2023-05-04T13:14:11.191Z,28.08
2023-05-04T13:16:37.792Z,27.53
2023-05-04T13:19:04.949Z,27.07
2023-05-04T13:21:31.920Z,26.23
2023-05-04T13:23:59.378Z,25.68
2023-05-04T13:26:26.154Z,25.10
2023-05-04T13:28:52.887Z,24.78
2023-05-04T13:31:19.628Z,24.78
2023-05-04T13:33:46.726Z,24.61
2023-05-04T13:36:13.509Z,24.29
2023-05-04T13:38:40.121Z,24.38
2023-05-04T13:41:06.821Z,24.57
2023-05-04T13:43:33.420Z,24.25
2023-05-04T13:46:04.431Z,24.02
2023-05-04T13:48:32.916Z,23.94
2023-05-04T13:50:59.593Z,24.07
2023-05-04T13:53:26.446Z,23.97
2023-05-04T13:55:53.087Z,23.98
2023-05-04T13:58:19.675Z,24.08
2023-05-04T14:00:46.718Z,24.16
2023-05-04T14:03:13.329Z,24.23
2023-05-04T14:05:39.958Z,24.17
2023-05-04T14:08:06.654Z,24.22
2023-05-04T14:10:34.934Z,24.36
2023-05-04T14:13:02.642Z,24.44
2023-05-04T14:15:29.495Z,24.46
2023-05-04T14:17:56.612Z,24.44
2023-05-04T14:20:23.300Z,24.31
2023-05-04T14:22:49.865Z,24.15
2023-05-04T14:25:16.571Z,23.94
2023-05-04T14:27:43.513Z,23.78
2023-05-04T14:30:10.953Z,23.64
2023-05-04T14:32:37.523Z,23.54
2023-05-04T14:35:08.518Z,23.48
2023-05-04T14:37:38.119Z,23.37
2023-05-04T14:40:06.591Z,23.07
2023-05-04T14:42:33.473Z,22.77
2023-05-04T14:45:00.068Z,22.60
2023-05-04T14:47:27.642Z,22.44
2023-05-04T14:49:54.398Z,22.19
2023-05-04T14:52:21.267Z,21.73
2023-05-04T14:54:47.793Z,21.56
2023-05-04T14:57:14.440Z,21.50
2023-05-04T14:59:42.135Z,21.33
2023-05-04T15:02:09.194Z,21.17
2023-05-04T15:04:36.441Z,21.05
2023-05-04T15:07:04.610Z,20.93
2023-05-04T15:09:31.677Z,20.90
2023-05-04T15:11:58.362Z,20.87
2023-05-04T15:14:26.425Z,20.84
2023-05-04T15:16:53.069Z,20.85
2023-05-04T15:19:21.097Z,20.92
2023-05-04T15:21:48.639Z,20.86
2023-05-04T15:24:15.242Z,20.56
2023-05-04T15:26:41.834Z,20.21
2023-05-04T15:29:08.792Z,19.72
2023-05-04T15:31:35.995Z,19.48
2023-05-04T15:34:02.799Z,19.50
2023-05-04T15:36:31.745Z,19.51
2023-05-04T15:38:58.383Z,19.57
2023-05-04T15:41:24.978Z,19.59
2023-05-04T15:43:51.591Z,19.60
2023-05-04T15:46:18.165Z,19.60
2023-05-04T15:48:44.930Z,19.38
2023-05-04T15:51:14.970Z,19.25
2023-05-04T15:53:41.685Z,19.19
2023-05-04T15:56:08.434Z,19.00
2023-05-04T15:58:35.080Z,18.66
2023-05-04T16:01:04.037Z,18.39
2023-05-04T16:03:31.815Z,18.29
2023-05-04T16:05:58.600Z,18.30
2023-05-04T16:08:25.998Z,18.29
2023-05-04T16:10:54.124Z,18.21
2023-05-04T16:13:20.895Z,18.17
2023-05-04T16:15:51.572Z,18.15
2023-05-04T16:18:18.582Z,18.10
2023-05-04T16:20:46.291Z,18.06
2023-05-04T16:23:15.207Z,18.04
2023-05-04T16:25:42.429Z,18.01
2023-05-04T16:28:10.268Z,18.05
2023-05-04T16:30:37.855Z,18.06
2023-05-04T16:33:04.664Z,18.04
2023-05-04T16:35:32.189Z,18.01
2023-05-04T16:37:59.023Z,17.98
2023-05-04T16:40:25.734Z,17.94
2023-05-04T16:42:52.415Z,17.88
2023-05-04T16:45:19.557Z,17.81
2023-05-04T16:47:46.413Z,17.74
2023-05-04T16:50:14.318Z,17.65
2023-05-04T16:52:41.955Z,17.57
2023-05-04T16:55:12.063Z,17.50
2023-05-04T16:57:39.159Z,17.44
2023-05-04T17:00:07.109Z,17.39
2023-05-04T17:02:34.346Z,17.36
2023-05-04T17:05:01.169Z,17.33
2023-05-04T17:07:28.529Z,17.31
2023-05-04T17:09:55.152Z,17.26
2023-05-04T17:12:23.423Z,17.11
2023-05-04T17:14:50.210Z,16.98
2023-05-04T17:17:16.849Z,16.86
2023-05-04T17:19:43.414Z,16.75
2023-05-04T17:22:11.204Z,16.64
2023-05-04T17:24:38.067Z,16.49
2023-05-04T17:27:04.975Z,16.36
2023-05-04T17:29:31.757Z,16.24
2023-05-04T17:31:58.703Z,16.08
2023-05-04T17:34:25.346Z,15.96
2023-05-04T17:36:52.206Z,15.82
2023-05-04T17:39:19.904Z,15.60
2023-05-04T17:41:48.801Z,15.42
2023-05-04T17:44:16.433Z,15.29
2023-05-04T17:46:43.743Z,15.19
2023-05-04T17:49:10.650Z,15.06
2023-05-04T17:51:37.434Z,14.87
2023-05-04T17:54:04.209Z,14.62
2023-05-04T17:56:31.032Z,14.43
2023-05-04T17:58:57.735Z,14.31
2023-05-04T18:01:24.500Z,14.18
2023-05-04T18:03:51.235Z,14.07
2023-05-04T18:06:18.089Z,13.96
2023-05-04T18:08:44.938Z,13.84
2023-05-04T18:11:12.352Z,13.71
2023-05-04T18:13:39.001Z,13.58
2023-05-04T18:16:05.920Z,13.45
2023-05-04T18:18:33.310Z,13.34
2023-05-04T18:21:00.932Z,13.23
2023-05-04T18:23:27.670Z,13.13
2023-05-04T18:25:54.388Z,13.02
2023-05-04T18:28:21.149Z,12.91
2023-05-04T18:30:48.085Z,12.81
2023-05-04T18:33:14.705Z,12.68
2023-05-04T18:35:41.915Z,12.55
2023-05-04T18:38:08.608Z,12.43
2023-05-04T18:40:35.390Z,12.28
2023-05-04T18:43:02.016Z,12.13
2023-05-04T18:45:28.677Z,12.00
2023-05-04T18:47:55.425Z,11.87
2023-05-04T18:50:22.010Z,11.74
2023-05-04T18:52:48.638Z,11.63
2023-05-04T18:55:15.242Z,11.51
2023-05-04T18:57:41.842Z,11.38
2023-05-04T19:00:09.304Z,11.26
2023-05-04T19:02:37.177Z,11.16
2023-05-04T19:05:04.010Z,11.07
2023-05-04T19:07:30.673Z,10.96
2023-05-04T19:09:57.657Z,10.86
2023-05-04T19:12:24.563Z,10.77
2023-05-04T19:14:51.325Z,10.68
2023-05-04T19:17:18.727Z,10.56
2023-05-04T19:19:45.594Z,10.45
2023-05-04T19:22:13.403Z,10.32
2023-05-04T19:24:40.152Z,10.24
2023-05-04T19:27:07.378Z,10.19
2023-05-04T19:29:34.218Z,10.13
2023-05-04T19:32:05.585Z,10.06
2023-05-04T19:34:42.996Z,10.00
2023-05-04T19:37:09.905Z,9.94
2023-05-04T19:39:36.791Z,9.87
2023-05-04T19:42:03.625Z,9.80
2023-05-04T19:44:30.312Z,9.73
2023-05-04T19:46:57.229Z,9.65
2023-05-04T19:49:25.037Z,9.57
2023-05-04T19:51:51.881Z,9.52
2023-05-04T19:54:18.660Z,9.47
2023-05-04T19:56:45.506Z,9.43
2023-05-04T19:59:12.343Z,9.39
2023-05-04T20:01:39.085Z,9.34
2023-05-04T20:04:08.300Z,9.28
2023-05-04T20:06:36.166Z,9.23
2023-05-04T20:09:03.967Z,9.20
2023-05-04T20:11:31.040Z,9.16
2023-05-04T20:13:57.901Z,9.11
2023-05-04T20:16:24.698Z,9.07
2023-05-04T20:18:51.350Z,9.01
2023-05-04T20:21:18.088Z,8.95
2023-05-04T20:23:45.141Z,8.89
2023-05-04T20:26:12.108Z,8.82
2023-05-04T20:28:39.285Z,8.74
2023-05-04T20:31:07.697Z,8.66
2023-05-04T20:33:34.791Z,8.58
2023-05-04T20:36:02.540Z,8.51
2023-05-04T20:38:29.259Z,8.45
2023-05-04T20:40:56.059Z,8.40
2023-05-04T20:43:23.009Z,8.34
2023-05-04T20:45:49.736Z,8.28
2023-05-04T20:48:16.582Z,8.23
2023-05-04T20:50:43.418Z,8.17
2023-05-04T20:53:10.097Z,8.12
2023-05-04T20:55:37.275Z,8.06
2023-05-04T20:58:03.934Z,8.00
2023-05-04T21:00:32.382Z,7.93
2023-05-04T21:03:00.530Z,7.89
2023-05-04T21:05:27.460Z,7.85
2023-05-04T21:07:54.447Z,7.80
2023-05-04T21:10:21.433Z,7.77
2023-05-04T21:12:48.413Z,7.72
2023-05-04T21:15:15.300Z,7.67
2023-05-04T21:17:42.092Z,7.61
2023-05-04T21:20:09.580Z,7.54
2023-05-04T21:22:37.203Z,7.47
2023-05-04T21:25:04.517Z,7.41
2023-05-04T21:27:31.758Z,7.37
2023-05-04T21:29:58.727Z,7.34
2023-05-04T21:32:29.197Z,7.27
2023-05-04T21:34:56.382Z,7.18
2023-05-04T21:37:23.071Z,7.10
2023-05-04T21:39:55.793Z,7.03
2023-05-04T21:42:23.876Z,6.99
2023-05-04T21:44:55.314Z,6.96
2023-05-04T21:47:25.806Z,6.95
2023-05-04T21:49:53.849Z,6.93
2023-05-04T21:52:21.128Z,6.92
2023-05-04T21:54:47.818Z,6.92
2023-05-04T21:57:14.876Z,6.90
2023-05-04T21:59:41.561Z,6.87
2023-05-04T22:02:09.952Z,6.84
2023-05-04T22:04:36.861Z,6.81
2023-05-04T22:07:03.613Z,6.76
2023-05-04T22:09:30.288Z,6.72
2023-05-04T22:11:57.127Z,6.67
2023-05-04T22:14:23.714Z,6.65
2023-05-04T22:16:52.982Z,6.62
2023-05-04T22:19:19.653Z,6.59
2023-05-04T22:21:46.278Z,6.57
2023-05-04T22:24:12.870Z,6.55
2023-05-04T22:26:40.834Z,6.53
2023-05-04T22:29:07.383Z,6.52
2023-05-04T22:31:33.965Z,6.51
2023-05-04T22:34:00.816Z,6.51
2023-05-04T22:36:27.597Z,6.52
2023-05-04T22:38:54.166Z,6.53
2023-05-04T22:41:21.288Z,6.53
2023-05-04T22:43:47.894Z,6.53
2023-05-04T22:46:16.842Z,6.51
2023-05-04T22:48:46.711Z,6.51
2023-05-04T22:51:14.727Z,6.51
2023-05-04T22:53:41.370Z,6.51
2023-05-04T22:56:08.517Z,6.50
2023-05-04T22:58:35.540Z,6.49
2023-05-04T23:01:02.812Z,6.48
2023-05-04T23:03:29.489Z,6.47
2023-05-04T23:05:59.910Z,6.46
2023-05-04T23:08:26.552Z,6.45
2023-05-04T23:10:53.199Z,6.44
2023-05-04T23:13:19.772Z,6.44
2023-05-04T23:15:46.761Z,6.45
2023-05-04T23:18:15.435Z,6.46
2023-05-04T23:20:42.872Z,6.47
2023-05-04T23:23:09.438Z,6.47
2023-05-04T23:25:36.398Z,6.46
2023-05-04T23:28:03.644Z,6.45
2023-05-04T23:30:30.338Z,6.45
2023-05-04T23:32:57.839Z,6.44
2023-05-04T23:35:24.493Z,6.42
2023-05-04T23:37:51.236Z,6.41
2023-05-04T23:40:17.858Z,6.40
2023-05-04T23:42:48.097Z,6.39
2023-05-04T23:45:14.699Z,6.38
2023-05-04T23:47:41.249Z,6.38
2023-05-04T23:50:08.629Z,6.38
2023-05-04T23:52:35.380Z,6.41
2023-05-04T23:55:02.187Z,6.44
2023-05-04T23:57:28.731Z,6.49
2023-05-04T23:59:55.395Z,6.54
